sensor_id;sensor_type;location;lat;lon;timestamp;pressure;altitude;pressure_sealevel;temperature;humidity
59690;BME280;45557;50.298;18.930;2022-11-15T00:03:43;98610.83;;;6.46;82.40
59690;BME280;45557;50.298;18.930;2022-11-15T00:09:24;98608.67;;;6.44;82.20
59690;BME280;45557;50.298;18.930;2022-11-15T00:15:05;98602.89;;;6.45;82.06
59690;BME280;45557;50.298;18.930;2022-11-15T00:20:46;98597.39;;;6.47;82.39
59690;BME280;45557;50.298;18.930;2022-11-15T00:26:26;98586.07;;;6.44;81.90
59690;BME280;45557;50.298;18.930;2022-11-15T00:32:07;98581.80;;;6.35;81.63
59690;BME280;45557;50.298;18.930;2022-11-15T00:37:48;98574.38;;;6.30;82.14
59690;BME280;45557;50.298;18.930;2022-11-15T00:43:28;98567.55;;;6.28;81.60
59690;BME280;45557;50.298;18.930;2022-11-15T00:49:09;98558.07;;;6.19;81.85
59690;BME280;45557;50.298;18.930;2022-11-15T00:54:49;98549.27;;;6.12;81.86
59690;BME280;45557;50.298;18.930;2022-11-15T01:00:29;98549.23;;;6.03;80.87
59690;BME280;45557;50.298;18.930;2022-11-15T01:06:11;98543.27;;;5.95;80.96
59690;BME280;45557;50.298;18.930;2022-11-15T01:11:51;98543.26;;;5.87;80.89
59690;BME280;45557;50.298;18.930;2022-11-15T01:17:32;98535.71;;;5.73;81.24
59690;BME280;45557;50.298;18.930;2022-11-15T01:23:13;98532.59;;;5.67;81.33
59690;BME280;45557;50.298;18.930;2022-11-15T01:28:53;98532.55;;;5.67;81.30
59690;BME280;45557;50.298;18.930;2022-11-15T01:34:34;98515.45;;;5.66;81.54
59690;BME280;45557;50.298;18.930;2022-11-15T01:40:14;98507.15;;;5.70;81.50
59690;BME280;45557;50.298;18.930;2022-11-15T01:46:10;98509.80;;;5.70;81.59
59690;BME280;45557;50.298;18.930;2022-11-15T01:51:54;98503.50;;;5.73;81.22
59690;BME280;45557;50.298;18.930;2022-11-15T01:57:35;98490.95;;;5.71;81.16
59690;BME280;45557;50.298;18.930;2022-11-15T02:03:16;98485.29;;;5.58;80.98
59690;BME280;45557;50.298;18.930;2022-11-15T02:08:58;98480.39;;;5.48;81.10
59690;BME280;45557;50.298;18.930;2022-11-15T02:14:40;98475.80;;;5.51;81.64
59690;BME280;45557;50.298;18.930;2022-11-15T02:26:30;98464.41;;;5.49;80.90
59690;BME280;45557;50.298;18.930;2022-11-15T02:38:44;98459.45;;;5.40;81.09
59690;BME280;45557;50.298;18.930;2022-11-15T02:44:45;98457.05;;;5.43;80.92
59690;BME280;45557;50.298;18.930;2022-11-15T02:50:29;98450.41;;;5.36;80.58
59690;BME280;45557;50.298;18.930;2022-11-15T02:56:11;98447.73;;;5.26;80.72
59690;BME280;45557;50.298;18.930;2022-11-15T03:02:25;98439.23;;;5.24;80.80
59690;BME280;45557;50.298;18.930;2022-11-15T03:08:10;98434.71;;;5.18;81.00
59690;BME280;45557;50.298;18.930;2022-11-15T03:14:12;98432.59;;;5.11;81.07
59690;BME280;45557;50.298;18.930;2022-11-15T03:19:57;98423.58;;;5.08;80.74
59690;BME280;45557;50.298;18.930;2022-11-15T03:25:44;98417.98;;;5.09;80.70
59690;BME280;45557;50.298;18.930;2022-11-15T03:31:30;98410.94;;;5.05;80.46
59690;BME280;45557;50.298;18.930;2022-11-15T03:38:22;98404.39;;;4.97;80.42
59690;BME280;45557;50.298;18.930;2022-11-15T03:43:53;98389.21;;;4.89;80.62
59690;BME280;45557;50.298;18.930;2022-11-15T03:49:40;98390.51;;;4.83;81.11
59690;BME280;45557;50.298;18.930;2022-11-15T03:55:22;98385.98;;;4.81;81.28
59690;BME280;45557;50.298;18.930;2022-11-15T04:01:03;98390.04;;;4.81;81.57
59690;BME280;45557;50.298;18.930;2022-11-15T04:06:44;98380.74;;;4.85;81.65
59690;BME280;45557;50.298;18.930;2022-11-15T04:12:24;98375.64;;;4.89;81.88
59690;BME280;45557;50.298;18.930;2022-11-15T04:18:11;98370.83;;;4.97;81.87
59690;BME280;45557;50.298;18.930;2022-11-15T04:23:51;98363.35;;;5.03;81.63
59690;BME280;45557;50.298;18.930;2022-11-15T04:29:31;98357.30;;;5.04;81.56
59690;BME280;45557;50.298;18.930;2022-11-15T04:35:15;98360.11;;;5.09;81.27
59690;BME280;45557;50.298;18.930;2022-11-15T04:40:55;98355.04;;;5.11;80.98
59690;BME280;45557;50.298;18.930;2022-11-15T04:46:36;98347.75;;;5.09;80.82
59690;BME280;45557;50.298;18.930;2022-11-15T04:52:16;98346.19;;;5.03;80.51
59690;BME280;45557;50.298;18.930;2022-11-15T04:57:58;98342.58;;;5.06;80.38
59690;BME280;45557;50.298;18.930;2022-11-15T05:03:41;98338.61;;;5.07;80.39
59690;BME280;45557;50.298;18.930;2022-11-15T05:09:40;98329.19;;;5.05;80.52
59690;BME280;45557;50.298;18.930;2022-11-15T05:15:20;98324.04;;;5.07;80.58
59690;BME280;45557;50.298;18.930;2022-11-15T05:21:05;98318.02;;;5.08;80.50
59690;BME280;45557;50.298;18.930;2022-11-15T05:26:46;98311.30;;;5.05;80.22
59690;BME280;45557;50.298;18.930;2022-11-15T05:32:27;98304.06;;;5.05;80.21
59690;BME280;45557;50.298;18.930;2022-11-15T05:38:09;98298.98;;;5.03;80.35
59690;BME280;45557;50.298;18.930;2022-11-15T05:43:50;98288.24;;;4.98;80.32
59690;BME280;45557;50.298;18.930;2022-11-15T05:49:34;98286.12;;;4.95;79.94
59690;BME280;45557;50.298;18.930;2022-11-15T05:55:15;98279.92;;;4.92;80.43
59690;BME280;45557;50.298;18.930;2022-11-15T06:00:56;98286.05;;;4.88;80.31
59690;BME280;45557;50.298;18.930;2022-11-15T06:06:37;98288.92;;;4.86;80.18
59690;BME280;45557;50.298;18.930;2022-11-15T06:12:18;98290.17;;;4.90;80.48
59690;BME280;45557;50.298;18.930;2022-11-15T06:17:58;98292.41;;;4.88;80.39
59690;BME280;45557;50.298;18.930;2022-11-15T06:23:39;98292.88;;;4.88;80.31
59690;BME280;45557;50.298;18.930;2022-11-15T06:29:19;98298.42;;;4.85;80.15
59690;BME280;45557;50.298;18.930;2022-11-15T06:35:00;98303.98;;;4.81;80.26
59690;BME280;45557;50.298;18.930;2022-11-15T06:40:40;98310.56;;;4.71;80.22
59690;BME280;45557;50.298;18.930;2022-11-15T06:46:21;98310.98;;;4.63;80.42
59690;BME280;45557;50.298;18.930;2022-11-15T06:52:01;98315.64;;;4.71;81.29
59690;BME280;45557;50.298;18.930;2022-11-15T06:57:50;98314.90;;;4.69;81.24
59690;BME280;45557;50.298;18.930;2022-11-15T07:03:31;98316.79;;;4.74;81.38
59690;BME280;45557;50.298;18.930;2022-11-15T07:09:14;98314.20;;;4.90;82.34
59690;BME280;45557;50.298;18.930;2022-11-15T07:14:55;98308.48;;;5.12;82.35
59690;BME280;45557;50.298;18.930;2022-11-15T07:20:35;98310.38;;;5.36;81.67
59690;BME280;45557;50.298;18.930;2022-11-15T07:26:15;98306.68;;;5.50;80.71
59690;BME280;45557;50.298;18.930;2022-11-15T07:32:17;98310.44;;;5.58;80.93
59690;BME280;45557;50.298;18.930;2022-11-15T07:39:02;98299.76;;;5.72;80.24
59690;BME280;45557;50.298;18.930;2022-11-15T07:44:43;98302.71;;;5.81;79.89
59690;BME280;45557;50.298;18.930;2022-11-15T07:50:24;98301.86;;;5.75;79.53
59690;BME280;45557;50.298;18.930;2022-11-15T07:56:29;98299.64;;;5.69;79.51
59690;BME280;45557;50.298;18.930;2022-11-15T08:02:13;98293.39;;;5.64;80.03
59690;BME280;45557;50.298;18.930;2022-11-15T08:07:58;98291.21;;;5.65;79.86
59690;BME280;45557;50.298;18.930;2022-11-15T08:13:59;98284.16;;;5.68;81.17
59690;BME280;45557;50.298;18.930;2022-11-15T08:20:43;98283.47;;;5.97;81.42
59690;BME280;45557;50.298;18.930;2022-11-15T08:27:21;98274.66;;;6.37;81.26
59690;BME280;45557;50.298;18.930;2022-11-15T08:34:03;98279.84;;;6.78;81.45
59690;BME280;45557;50.298;18.930;2022-11-15T08:40:44;98272.67;;;7.17;81.08
59690;BME280;45557;50.298;18.930;2022-11-15T08:47:13;98271.16;;;7.51;80.61
59690;BME280;45557;50.298;18.930;2022-11-15T08:54:02;98265.20;;;7.88;80.05
59690;BME280;45557;50.298;18.930;2022-11-15T09:00:24;98268.25;;;8.19;78.97
59690;BME280;45557;50.298;18.930;2022-11-15T09:06:05;98260.16;;;8.43;78.52
59690;BME280;45557;50.298;18.930;2022-11-15T09:11:48;98263.42;;;8.68;77.82
59690;BME280;45557;50.298;18.930;2022-11-15T09:17:29;98254.18;;;8.93;77.26
59690;BME280;45557;50.298;18.930;2022-11-15T09:23:10;98249.45;;;9.22;76.60
59690;BME280;45557;50.298;18.930;2022-11-15T09:28:51;98239.19;;;9.45;75.77
59690;BME280;45557;50.298;18.930;2022-11-15T09:34:32;98229.84;;;9.67;74.86
59690;BME280;45557;50.298;18.930;2022-11-15T09:40:14;98224.97;;;9.90;74.15
59690;BME280;45557;50.298;18.930;2022-11-15T09:46:19;98214.41;;;10.15;73.29
59690;BME280;45557;50.298;18.930;2022-11-15T09:52:06;98206.79;;;10.37;71.63
59690;BME280;45557;50.298;18.930;2022-11-15T09:57:37;98195.50;;;10.50;71.09
59690;BME280;45557;50.298;18.930;2022-11-15T10:03:08;98178.63;;;10.65;70.51
59690;BME280;45557;50.298;18.930;2022-11-15T10:08:45;98171.17;;;10.81;70.16
59690;BME280;45557;50.298;18.930;2022-11-15T10:14:42;98171.48;;;11.09;69.83
59690;BME280;45557;50.298;18.930;2022-11-15T10:20:59;98168.24;;;11.26;68.99
59690;BME280;45557;50.298;18.930;2022-11-15T10:26:46;98167.73;;;11.39;69.33
59690;BME280;45557;50.298;18.930;2022-11-15T10:32:11;98157.84;;;11.49;68.89
59690;BME280;45557;50.298;18.930;2022-11-15T10:44:32;98154.33;;;11.61;68.57
59690;BME280;45557;50.298;18.930;2022-11-15T10:51:25;98151.91;;;11.60;67.98
59690;BME280;45557;50.298;18.930;2022-11-15T10:57:28;98141.60;;;11.65;68.22
59690;BME280;45557;50.298;18.930;2022-11-15T11:09:00;98129.30;;;11.96;67.22
59690;BME280;45557;50.298;18.930;2022-11-15T11:15:44;98126.69;;;12.18;66.71
59690;BME280;45557;50.298;18.930;2022-11-15T11:33:17;98110.30;;;12.89;64.31
59690;BME280;45557;50.298;18.930;2022-11-15T11:44:30;98094.10;;;13.29;62.93
59690;BME280;45557;50.298;18.930;2022-11-15T11:49:59;98084.64;;;13.44;62.52
59690;BME280;45557;50.298;18.930;2022-11-15T11:55:39;98075.33;;;13.69;62.53
59690;BME280;45557;50.298;18.930;2022-11-15T12:01:31;98070.25;;;13.91;60.63
59690;BME280;45557;50.298;18.930;2022-11-15T12:13:42;98050.81;;;14.04;59.53
59690;BME280;45557;50.298;18.930;2022-11-15T12:27:01;98032.49;;;13.75;59.74
59690;BME280;45557;50.298;18.930;2022-11-15T12:33:49;98030.66;;;13.67;59.79
59690;BME280;45557;50.298;18.930;2022-11-15T12:40:16;98021.46;;;13.61;60.53
59690;BME280;45557;50.298;18.930;2022-11-15T12:45:41;98013.52;;;13.59;60.20
59690;BME280;45557;50.298;18.930;2022-11-15T12:51:04;98008.71;;;13.52;60.31
59690;BME280;45557;50.298;18.930;2022-11-15T12:56:31;97999.53;;;13.42;60.50
59690;BME280;45557;50.298;18.930;2022-11-15T13:01:57;97995.28;;;13.29;61.04
59690;BME280;45557;50.298;18.930;2022-11-15T13:13:04;97977.91;;;13.10;61.87
59690;BME280;45557;50.298;18.930;2022-11-15T13:18:38;97975.90;;;13.02;62.55
59690;BME280;45557;50.298;18.930;2022-11-15T13:24:00;97973.98;;;12.96;63.07
59690;BME280;45557;50.298;18.930;2022-11-15T13:29:22;97975.61;;;12.92;63.52
59690;BME280;45557;50.298;18.930;2022-11-15T13:34:49;97976.99;;;12.85;63.51
59690;BME280;45557;50.298;18.930;2022-11-15T13:40:25;97969.30;;;12.77;64.02
59690;BME280;45557;50.298;18.930;2022-11-15T13:46:15;97958.83;;;12.72;64.51
59690;BME280;45557;50.298;18.930;2022-11-15T13:51:50;97959.73;;;12.70;64.82
59690;BME280;45557;50.298;18.930;2022-11-15T13:57:21;97953.08;;;12.71;65.10
59690;BME280;45557;50.298;18.930;2022-11-15T14:03:05;97943.56;;;12.71;65.05
59690;BME280;45557;50.298;18.930;2022-11-15T14:08:39;97947.60;;;12.67;65.10
59690;BME280;45557;50.298;18.930;2022-11-15T14:15:26;97946.32;;;12.65;65.50
59690;BME280;45557;50.298;18.930;2022-11-15T14:21:36;97938.34;;;12.62;65.65
59690;BME280;45557;50.298;18.930;2022-11-15T14:38:52;97920.81;;;12.52;66.08
59690;BME280;45557;50.298;18.930;2022-11-15T14:44:15;97916.36;;;12.50;65.91
59690;BME280;45557;50.298;18.930;2022-11-15T14:49:40;97914.11;;;12.49;66.32
59690;BME280;45557;50.298;18.930;2022-11-15T15:02:13;97897.36;;;12.41;66.54
59690;BME280;45557;50.298;18.930;2022-11-15T15:08:36;97888.93;;;12.32;66.78
59690;BME280;45557;50.298;18.930;2022-11-15T15:14:18;97883.73;;;12.25;66.97
59690;BME280;45557;50.298;18.930;2022-11-15T15:21:02;97876.66;;;12.17;67.10
59690;BME280;45557;50.298;18.930;2022-11-15T15:27:44;97872.37;;;12.15;67.34
59690;BME280;45557;50.298;18.930;2022-11-15T15:34:35;97868.56;;;12.14;67.37
59690;BME280;45557;50.298;18.930;2022-11-15T15:41:19;97865.61;;;12.08;67.54
59690;BME280;45557;50.298;18.930;2022-11-15T15:47:42;97864.05;;;12.00;67.66
59690;BME280;45557;50.298;18.930;2022-11-15T15:53:08;97862.15;;;11.94;67.88
59690;BME280;45557;50.298;18.930;2022-11-15T15:58:53;97858.38;;;11.85;68.16
59690;BME280;45557;50.298;18.930;2022-11-15T16:05:35;97863.34;;;11.82;68.32
59690;BME280;45557;50.298;18.930;2022-11-15T16:11:59;97858.60;;;11.78;68.48
59690;BME280;45557;50.298;18.930;2022-11-15T16:18:24;97856.88;;;11.71;68.72
59690;BME280;45557;50.298;18.930;2022-11-15T16:23:46;97857.20;;;11.64;68.97
59690;BME280;45557;50.298;18.930;2022-11-15T16:30:29;97862.88;;;11.63;69.20
59690;BME280;45557;50.298;18.930;2022-11-15T16:37:21;97858.96;;;11.60;69.31
59690;BME280;45557;50.298;18.930;2022-11-15T16:44:04;97853.31;;;11.52;69.65
59690;BME280;45557;50.298;18.930;2022-11-15T16:50:47;97849.00;;;11.43;70.04
59690;BME280;45557;50.298;18.930;2022-11-15T16:57:30;97848.25;;;11.39;70.35
59690;BME280;45557;50.298;18.930;2022-11-15T17:04:15;97837.49;;;11.38;70.64
59690;BME280;45557;50.298;18.930;2022-11-15T17:10:39;97832.34;;;11.32;70.77
59690;BME280;45557;50.298;18.930;2022-11-15T17:16:24;97831.80;;;11.24;70.76
59690;BME280;45557;50.298;18.930;2022-11-15T17:21:47;97824.42;;;11.21;71.17
59690;BME280;45557;50.298;18.930;2022-11-15T17:27:12;97817.15;;;11.17;71.25
59690;BME280;45557;50.298;18.930;2022-11-15T17:32:37;97821.18;;;11.03;71.41
59690;BME280;45557;50.298;18.930;2022-11-15T17:37:59;97811.19;;;10.90;72.04
59690;BME280;45557;50.298;18.930;2022-11-15T17:43:21;97809.45;;;10.90;72.21
59690;BME280;45557;50.298;18.930;2022-11-15T17:48:43;97801.75;;;10.95;72.53
59690;BME280;45557;50.298;18.930;2022-11-15T17:54:09;97794.74;;;10.98;72.43
59690;BME280;45557;50.298;18.930;2022-11-15T17:59:36;97786.41;;;10.98;72.43
59690;BME280;45557;50.298;18.930;2022-11-15T18:05:01;97777.09;;;10.93;72.62
59690;BME280;45557;50.298;18.930;2022-11-15T18:10:23;97756.42;;;10.90;72.62
59690;BME280;45557;50.298;18.930;2022-11-15T18:15:53;97757.56;;;10.92;72.42
59690;BME280;45557;50.298;18.930;2022-11-15T18:21:18;97738.63;;;10.91;72.43
59690;BME280;45557;50.298;18.930;2022-11-15T18:26:40;97740.29;;;10.85;72.60
59690;BME280;45557;50.298;18.930;2022-11-15T18:32:04;97746.56;;;10.75;72.67
59690;BME280;45557;50.298;18.930;2022-11-15T18:37:32;97761.27;;;10.72;72.98
59690;BME280;45557;50.298;18.930;2022-11-15T18:42:53;97764.26;;;10.72;72.87
59690;BME280;45557;50.298;18.930;2022-11-15T18:48:15;97756.41;;;10.69;73.04
59690;BME280;45557;50.298;18.930;2022-11-15T18:53:38;97755.94;;;10.69;72.93
59690;BME280;45557;50.298;18.930;2022-11-15T18:59:01;97754.04;;;10.64;72.87
59690;BME280;45557;50.298;18.930;2022-11-15T19:04:24;97752.41;;;10.61;72.94
59690;BME280;45557;50.298;18.930;2022-11-15T19:09:46;97745.06;;;10.62;73.09
59690;BME280;45557;50.298;18.930;2022-11-15T19:15:09;97750.79;;;10.60;73.17
59690;BME280;45557;50.298;18.930;2022-11-15T19:20:31;97745.05;;;10.56;73.36
59690;BME280;45557;50.298;18.930;2022-11-15T19:25:57;97748.67;;;10.54;73.29
59690;BME280;45557;50.298;18.930;2022-11-15T19:31:21;97747.95;;;10.53;73.63
59690;BME280;45557;50.298;18.930;2022-11-15T19:36:44;97743.91;;;10.54;73.68
59690;BME280;45557;50.298;18.930;2022-11-15T19:42:15;97742.60;;;10.53;73.37
59690;BME280;45557;50.298;18.930;2022-11-15T19:48:22;97737.71;;;10.55;73.39
59690;BME280;45557;50.298;18.930;2022-11-15T19:53:44;97738.64;;;10.59;73.37
59690;BME280;45557;50.298;18.930;2022-11-15T19:59:06;97731.71;;;10.56;73.48
59690;BME280;45557;50.298;18.930;2022-11-15T20:04:28;97721.92;;;10.53;73.17
59690;BME280;45557;50.298;18.930;2022-11-15T20:09:50;97717.06;;;10.50;73.15
59690;BME280;45557;50.298;18.930;2022-11-15T20:15:13;97714.18;;;10.48;73.29
59690;BME280;45557;50.298;18.930;2022-11-15T20:20:35;97707.48;;;10.48;73.43
59690;BME280;45557;50.298;18.930;2022-11-15T20:25:57;97703.71;;;10.46;73.28
59690;BME280;45557;50.298;18.930;2022-11-15T20:31:18;97706.44;;;10.47;73.22
59690;BME280;45557;50.298;18.930;2022-11-15T20:36:42;97700.73;;;10.53;73.36
59690;BME280;45557;50.298;18.930;2022-11-15T20:42:24;97700.16;;;10.52;73.33
59690;BME280;45557;50.298;18.930;2022-11-15T20:48:28;97700.32;;;10.51;73.35
59690;BME280;45557;50.298;18.930;2022-11-15T20:53:51;97691.44;;;10.55;73.21
59690;BME280;45557;50.298;18.930;2022-11-15T20:59:36;97688.08;;;10.57;73.09
59690;BME280;45557;50.298;18.930;2022-11-15T21:06:08;97695.31;;;10.56;73.06
59690;BME280;45557;50.298;18.930;2022-11-15T21:11:54;97681.95;;;10.54;72.94
59690;BME280;45557;50.298;18.930;2022-11-15T21:18:16;97673.73;;;10.57;72.79
59690;BME280;45557;50.298;18.930;2022-11-15T21:24:24;97670.32;;;10.58;72.93
59690;BME280;45557;50.298;18.930;2022-11-15T21:29:51;97653.70;;;10.57;73.02
59690;BME280;45557;50.298;18.930;2022-11-15T21:36:11;97654.77;;;10.56;72.80
59690;BME280;45557;50.298;18.930;2022-11-15T21:41:33;97648.97;;;10.59;72.75
59690;BME280;45557;50.298;18.930;2022-11-15T21:46:55;97646.21;;;10.61;72.85
59690;BME280;45557;50.298;18.930;2022-11-15T21:52:17;97642.39;;;10.61;72.63
59690;BME280;45557;50.298;18.930;2022-11-15T21:57:40;97636.83;;;10.60;72.87
59690;BME280;45557;50.298;18.930;2022-11-15T22:03:01;97636.13;;;10.57;72.72
59690;BME280;45557;50.298;18.930;2022-11-15T22:08:24;97630.45;;;10.59;72.93
59690;BME280;45557;50.298;18.930;2022-11-15T22:13:46;97622.05;;;10.59;72.77
59690;BME280;45557;50.298;18.930;2022-11-15T22:19:08;97607.88;;;10.58;73.01
59690;BME280;45557;50.298;18.930;2022-11-15T22:24:30;97606.62;;;10.52;73.03
59690;BME280;45557;50.298;18.930;2022-11-15T22:29:52;97599.79;;;10.53;73.07
59690;BME280;45557;50.298;18.930;2022-11-15T22:35:14;97586.88;;;10.54;73.25
59690;BME280;45557;50.298;18.930;2022-11-15T22:40:37;97581.02;;;10.51;73.14
59690;BME280;45557;50.298;18.930;2022-11-15T22:46:00;97572.02;;;10.49;73.20
59690;BME280;45557;50.298;18.930;2022-11-15T22:51:22;97572.91;;;10.50;73.17
59690;BME280;45557;50.298;18.930;2022-11-15T22:56:44;97573.31;;;10.50;73.06
59690;BME280;45557;50.298;18.930;2022-11-15T23:02:10;97565.16;;;10.47;73.19
59690;BME280;45557;50.298;18.930;2022-11-15T23:07:32;97556.52;;;10.44;73.14
59690;BME280;45557;50.298;18.930;2022-11-15T23:13:07;97543.62;;;10.45;73.04
59690;BME280;45557;50.298;18.930;2022-11-15T23:18:39;97538.73;;;10.45;73.05
59690;BME280;45557;50.298;18.930;2022-11-15T23:24:04;97533.11;;;10.42;72.95
59690;BME280;45557;50.298;18.930;2022-11-15T23:29:27;97532.85;;;10.35;72.86
59690;BME280;45557;50.298;18.930;2022-11-15T23:35:10;97532.77;;;10.37;73.05
59690;BME280;45557;50.298;18.930;2022-11-15T23:41:51;97532.40;;;10.38;73.13
59690;BME280;45557;50.298;18.930;2022-11-15T23:47:42;97527.84;;;10.29;73.06
59690;BME280;45557;50.298;18.930;2022-11-15T23:53:08;97518.52;;;10.20;73.52
59690;BME280;45557;50.298;18.930;2022-11-15T23:58:30;97511.95;;;10.23;73.77
